Time;durP1;ratioP1;P1;durP2;ratioP2;P2;SDS_P1;SDS_P2;PMS_P1;PMS_P2;Temp;Humidity;BMP_temperature;BMP_pressure;BME280_temperature;BME280_humidity;BME280_pressure;Samples;Min_cycle;Max_cycle;Signal;HPM_P1;HPM_P2
2023/07/21 00:01:36;;;;;;;3.35;2.10;;;22.60;55.70;;;;;;4994522;28;20034;-74
2023/07/21 00:04:03;;;;;;;4.72;2.72;;;22.60;55.70;;;;;;4993960;28;20026;-73
2023/07/21 00:06:29;;;;;;;8.15;2.40;;;22.60;55.60;;;;;;4995951;28;20474;-73
2023/07/21 00:08:54;;;;;;;3.17;1.77;;;22.60;55.70;;;;;;4994241;28;20068;-73
2023/07/21 00:11:20;;;;;;;4.63;2.60;;;22.60;56.00;;;;;;4994408;28;20030;-73
2023/07/21 00:13:46;;;;;;;7.20;2.50;;;22.60;55.90;;;;;;4994321;28;20439;-73
2023/07/21 00:16:11;;;;;;;4.72;2.10;;;22.60;56.20;;;;;;4993594;28;20022;-74
2023/07/21 00:18:39;;;;;;;5.63;2.17;;;22.50;56.60;;;;;;4993645;28;20022;-74
2023/07/21 00:21:05;;;;;;;6.68;2.55;;;22.50;56.60;;;;;;4993600;28;20038;-73
2023/07/21 00:23:31;;;;;;;5.28;2.55;;;22.50;56.50;;;;;;4994130;28;20354;-74
2023/07/21 00:25:57;;;;;;;5.45;2.00;;;22.50;56.60;;;;;;4976500;28;20026;-74
2023/07/21 00:28:25;;;;;;;4.93;2.25;;;22.50;57.00;;;;;;4993919;28;20030;-73
2023/07/21 00:30:51;;;;;;;5.80;2.80;;;22.40;57.00;;;;;;4993672;28;20433;-73
2023/07/21 00:33:16;;;;;;;5.85;2.70;;;22.40;57.10;;;;;;4993909;28;20110;-73
2023/07/21 00:35:42;;;;;;;3.78;2.30;;;22.40;57.20;;;;;;4993833;28;20049;-74
2023/07/21 00:38:08;;;;;;;6.38;2.40;;;22.40;57.30;;;;;;4993376;28;20030;-73
2023/07/21 00:40:37;;;;;;;5.00;2.50;;;22.40;57.40;;;;;;4994186;28;20085;-73
2023/07/21 00:43:03;;;;;;;4.40;2.03;;;22.40;57.40;;;;;;4993809;28;20015;-73
2023/07/21 00:45:34;;;;;;;6.63;2.40;;;22.40;57.40;;;;;;4992849;28;20093;-73
2023/07/21 00:48:03;;;;;;;4.32;2.60;;;22.40;57.40;;;;;;4976032;28;20421;-73
2023/07/21 00:50:29;;;;;;;5.93;2.40;;;22.40;57.80;;;;;;4993692;28;20034;-73
2023/07/21 00:52:56;;;;;;;7.18;2.97;;;22.40;58.00;;;;;;4993329;28;20471;-74
2023/07/21 00:55:22;;;;;;;4.63;2.10;;;22.40;57.90;;;;;;4993525;28;20031;-73
2023/07/21 00:57:48;;;;;;;3.95;2.60;;;22.40;57.80;;;;;;4993614;28;20054;-74
2023/07/21 01:00:13;;;;;;;5.93;2.50;;;22.40;58.00;;;;;;4992782;28;20069;-73
2023/07/21 01:02:39;;;;;;;4.70;2.60;;;22.40;57.90;;;;;;4993349;28;20026;-73
2023/07/21 01:05:07;;;;;;;3.72;2.50;;;22.40;57.90;;;;;;4992965;28;20029;-74
2023/07/21 01:07:34;;;;;;;7.18;2.95;;;22.40;57.90;;;;;;4993485;28;20426;-74
2023/07/21 01:10:00;;;;;;;5.28;2.40;;;22.40;58.20;;;;;;4993083;28;20022;-73
2023/07/21 01:12:26;;;;;;;3.30;2.10;;;22.50;58.00;;;;;;4993443;28;20059;-74
2023/07/21 01:14:52;;;;;;;7.47;3.05;;;22.50;57.90;;;;;;4993695;28;20031;-74
2023/07/21 01:17:19;;;;;;;4.00;2.72;;;22.40;57.70;;;;;;4992975;28;20077;-73
2023/07/21 01:19:48;;;;;;;5.65;2.30;;;22.40;57.70;;;;;;4993272;28;20026;-72
2023/07/21 01:22:42;;;;;;;5.07;2.33;;;22.40;57.90;;;;;;4992880;28;20359;-72
2023/07/21 01:25:11;;;;;;;5.03;2.35;;;22.40;58.00;;;;;;4992921;28;20108;-72
2023/07/21 01:27:39;;;;;;;6.60;2.80;;;22.40;58.10;;;;;;4993204;28;20026;-73
2023/07/21 01:30:10;;;;;;;7.88;2.95;;;22.40;58.30;;;;;;4992872;28;20036;-73
2023/07/21 01:32:38;;;;;;;4.22;2.67;;;22.40;58.80;;;;;;4993250;28;20136;-73
2023/07/21 01:35:08;;;;;;;4.15;2.30;;;22.40;58.80;;;;;;4992719;28;20023;-73
2023/07/21 01:37:37;;;;;;;3.80;2.50;;;22.40;59.00;;;;;;4993025;28;20026;-73
2023/07/21 01:40:06;;;;;;;3.63;2.15;;;22.30;59.00;;;;;;4992641;28;20458;-73
2023/07/21 01:42:33;;;;;;;5.78;2.72;;;22.30;58.90;;;;;;4992928;28;20025;-73
2023/07/21 01:44:59;;;;;;;3.90;2.30;;;22.20;59.10;;;;;;4992473;28;20455;-73
2023/07/21 01:47:26;;;;;;;3.70;2.72;;;22.20;59.20;;;;;;4993052;28;20023;-72
2023/07/21 01:49:52;;;;;;;3.83;2.20;;;22.10;59.40;;;;;;4993015;28;20080;-72
2023/07/21 01:52:19;;;;;;;5.68;2.45;;;22.10;59.50;;;;;;4992289;28;20030;-72
2023/07/21 01:54:51;;;;;;;4.05;2.70;;;22.10;59.80;;;;;;4993262;28;20073;-72
2023/07/21 01:57:38;;;;;;;6.03;2.30;;;22.00;59.70;;;;;;4993979;28;20026;-72
2023/07/21 02:00:13;;;;;;;4.88;2.20;;;22.00;59.60;;;;;;4998733;28;20034;-72
2023/07/21 02:02:44;;;;;;;9.93;2.20;;;22.00;59.70;;;;;;4996792;28;20027;-74
2023/07/21 02:05:24;;;;;;;5.50;2.17;;;22.00;59.50;;;;;;4996210;28;20077;-73
2023/07/21 02:07:50;;;;;;;3.33;2.28;;;22.00;59.90;;;;;;4996691;28;20042;-72
2023/07/21 02:10:17;;;;;;;5.90;2.67;;;22.00;60.00;;;;;;4996219;28;20030;-72
2023/07/21 02:12:43;;;;;;;6.20;2.60;;;21.90;60.00;;;;;;4996011;28;20037;-72
2023/07/21 02:15:09;;;;;;;6.70;2.58;;;22.00;60.00;;;;;;4996124;28;20031;-72
2023/07/21 02:17:35;;;;;;;4.93;2.13;;;21.90;60.10;;;;;;4996428;28;20362;-72
2023/07/21 02:20:07;;;;;;;4.18;2.15;;;22.00;60.30;;;;;;4995627;28;20098;-72
2023/07/21 02:22:33;;;;;;;6.80;2.22;;;22.00;60.30;;;;;;4996559;28;20072;-73
2023/07/21 02:24:59;;;;;;;2.75;2.17;;;22.00;60.70;;;;;;4996132;28;20466;-72
2023/07/21 02:27:25;;;;;;;3.10;2.30;;;22.00;61.10;;;;;;4996247;28;20023;-72
2023/07/21 02:29:51;;;;;;;7.63;2.30;;;22.00;61.20;;;;;;4996131;28;20442;-72
2023/07/21 02:32:17;;;;;;;4.25;2.35;;;22.00;61.20;;;;;;4995808;28;20034;-73
2023/07/21 02:34:43;;;;;;;4.00;2.10;;;21.90;61.60;;;;;;4996301;28;20373;-73
2023/07/21 02:37:08;;;;;;;2.90;2.03;;;21.90;61.40;;;;;;4995702;28;20025;-74
2023/07/21 02:39:34;;;;;;;5.32;2.30;;;21.90;61.50;;;;;;4995758;28;20117;-74
2023/07/21 02:42:00;;;;;;;5.00;2.00;;;21.90;61.80;;;;;;4996092;28;20073;-73
2023/07/21 02:44:27;;;;;;;4.80;1.80;;;21.90;61.80;;;;;;4995972;28;20439;-73
2023/07/21 02:46:53;;;;;;;4.53;2.15;;;21.90;61.90;;;;;;5001225;28;20105;-73
2023/07/21 02:49:19;;;;;;;4.72;2.00;;;21.80;61.90;;;;;;5015208;28;20113;-73
2023/07/21 02:51:44;;;;;;;3.92;1.90;;;21.90;62.00;;;;;;5015604;28;20026;-73
2023/07/21 02:54:10;;;;;;;3.63;2.30;;;21.90;62.00;;;;;;5015343;28;20486;-73
2023/07/21 02:56:37;;;;;;;2.97;2.05;;;21.90;61.90;;;;;;5015329;28;20067;-73
2023/07/21 02:59:02;;;;;;;2.75;1.90;;;21.80;62.10;;;;;;5014980;28;20021;-73
2023/07/21 03:01:29;;;;;;;3.35;2.10;;;21.80;62.00;;;;;;5015098;28;20179;-73
2023/07/21 03:03:55;;;;;;;3.70;1.98;;;21.80;62.20;;;;;;5015251;28;20101;-73
2023/07/21 03:06:21;;;;;;;2.50;2.00;;;21.80;62.10;;;;;;5014536;28;20050;-73
2023/07/21 03:08:47;;;;;;;3.28;2.13;;;21.80;62.10;;;;;;5013986;28;20319;-73
2023/07/21 03:11:14;;;;;;;3.58;2.10;;;21.80;62.10;;;;;;5014664;28;20569;-73
2023/07/21 03:13:41;;;;;;;5.30;2.47;;;21.90;62.20;;;;;;5015028;28;20026;-73
2023/07/21 03:16:07;;;;;;;4.63;2.40;;;21.80;62.10;;;;;;5014586;28;20013;-73
2023/07/21 03:18:32;;;;;;;4.53;2.03;;;21.80;62.10;;;;;;5015032;28;20018;-73
2023/07/21 03:20:59;;;;;;;5.32;2.05;;;21.80;62.20;;;;;;5014516;28;20041;-73
2023/07/21 03:23:25;;;;;;;5.43;2.13;;;21.80;62.40;;;;;;5014406;28;20076;-73
2023/07/21 03:25:51;;;;;;;4.72;2.45;;;21.80;62.30;;;;;;5014826;28;20411;-73
2023/07/21 03:28:16;;;;;;;3.63;2.15;;;21.80;62.50;;;;;;5014634;28;20060;-73
2023/07/21 03:30:43;;;;;;;5.82;2.03;;;21.80;62.70;;;;;;5014789;28;20056;-73
2023/07/21 03:33:09;;;;;;;5.72;2.67;;;21.80;62.80;;;;;;5014426;28;20049;-73
2023/07/21 03:35:34;;;;;;;6.05;2.42;;;21.80;64.20;;;;;;5014650;28;20462;-73
2023/07/21 03:38:00;;;;;;;6.63;2.40;;;21.80;64.40;;;;;;5014563;28;20409;-74
2023/07/21 03:40:26;;;;;;;6.25;2.80;;;21.80;65.60;;;;;;5013971;28;20402;-73
2023/07/21 03:42:53;;;;;;;5.90;2.50;;;21.80;65.60;;;;;;5014152;28;20091;-73
2023/07/21 03:45:18;;;;;;;5.20;2.67;;;21.80;65.80;;;;;;5014005;28;20084;-73
2023/07/21 03:47:44;;;;;;;5.18;2.55;;;21.80;65.80;;;;;;4996871;28;20402;-73
2023/07/21 03:50:09;;;;;;;5.70;2.67;;;21.70;65.60;;;;;;5013973;28;20033;-73
2023/07/21 03:52:35;;;;;;;8.73;2.60;;;21.70;65.70;;;;;;5011225;28;20050;-73
2023/07/21 03:55:01;;;;;;;12.88;3.28;;;21.70;65.70;;;;;;5014383;28;20022;-73
2023/07/21 03:57:26;;;;;;;4.88;2.40;;;21.70;65.80;;;;;;5013754;28;20467;-73
2023/07/21 03:59:52;;;;;;;4.22;2.40;;;21.70;65.90;;;;;;5017511;28;20455;-74
2023/07/21 04:02:18;;;;;;;4.07;2.30;;;21.70;66.00;;;;;;5016781;28;20366;-73
2023/07/21 04:04:45;;;;;;;5.32;2.78;;;21.70;65.90;;;;;;5014049;28;20014;-73
2023/07/21 04:07:11;;;;;;;5.30;2.30;;;21.70;65.90;;;;;;5013682;28;20100;-73
2023/07/21 04:09:38;;;;;;;6.60;2.78;;;21.60;65.70;;;;;;5014146;28;20025;-73
2023/07/21 04:12:05;;;;;;;6.47;2.60;;;21.60;65.80;;;;;;5013919;28;20030;-73
2023/07/21 04:14:31;;;;;;;6.72;2.35;;;21.60;66.20;;;;;;5013586;28;20030;-73
2023/07/21 04:16:56;;;;;;;4.55;2.35;;;21.70;66.20;;;;;;5001108;28;20018;-73
2023/07/21 04:19:22;;;;;;;6.07;3.03;;;21.70;65.90;;;;;;4993405;28;20026;-73
2023/07/21 04:21:48;;;;;;;5.60;2.40;;;21.70;65.50;;;;;;4994054;28;20030;-73
2023/07/21 04:24:14;;;;;;;10.68;2.78;;;21.70;65.10;;;;;;4993734;28;20415;-73
2023/07/21 04:26:39;;;;;;;4.63;2.25;;;21.70;65.10;;;;;;4994117;28;20033;-73
2023/07/21 04:29:06;;;;;;;6.72;2.60;;;21.70;65.00;;;;;;4994014;28;20370;-74
2023/07/21 04:31:32;;;;;;;5.63;2.85;;;21.70;65.10;;;;;;4993432;28;20029;-73
2023/07/21 04:33:58;;;;;;;4.75;2.40;;;21.70;65.40;;;;;;4993651;28;20419;-74
2023/07/21 04:36:24;;;;;;;9.52;2.58;;;21.70;65.70;;;;;;4993351;28;20029;-73
2023/07/21 04:38:50;;;;;;;4.07;2.50;;;21.70;65.60;;;;;;4993982;28;20336;-73
2023/07/21 04:41:16;;;;;;;9.27;2.50;;;21.70;65.70;;;;;;4993441;28;20182;-73
2023/07/21 04:43:42;;;;;;;9.70;2.47;;;21.70;65.80;;;;;;5004453;28;20036;-73
2023/07/21 04:46:09;;;;;;;5.28;2.75;;;21.70;65.60;;;;;;5013569;28;20374;-73
2023/07/21 04:48:35;;;;;;;4.72;2.30;;;21.70;65.90;;;;;;5013279;28;20033;-73
2023/07/21 04:51:01;;;;;;;5.53;2.85;;;21.70;65.90;;;;;;5013129;28;20030;-73
2023/07/21 04:53:26;;;;;;;6.65;2.40;;;21.70;65.80;;;;;;5012655;28;20450;-73
2023/07/21 04:55:58;;;;;;;7.50;3.28;;;21.70;65.80;;;;;;5013730;28;20018;-73
2023/07/21 04:58:24;;;;;;;12.85;2.75;;;21.70;65.80;;;;;;5012847;28;20089;-73
2023/07/21 05:00:51;;;;;;;5.20;2.70;;;21.70;65.90;;;;;;5012886;28;20124;-73
2023/07/21 05:03:16;;;;;;;4.53;2.30;;;21.70;66.10;;;;;;5012767;28;20029;-73
2023/07/21 05:05:44;;;;;;;5.05;2.13;;;21.70;65.70;;;;;;5013098;28;20095;-73
2023/07/21 05:08:10;;;;;;;4.97;2.22;;;21.70;65.90;;;;;;5013176;28;20112;-73
2023/07/21 05:10:36;;;;;;;5.60;2.40;;;21.70;66.20;;;;;;5012734;28;20458;-73
2023/07/21 05:13:05;;;;;;;5.10;2.40;;;21.70;66.30;;;;;;5013024;28;20057;-73
2023/07/21 05:15:35;;;;;;;8.10;2.65;;;21.70;66.40;;;;;;5012753;28;20092;-73
2023/07/21 05:18:01;;;;;;;5.63;2.55;;;21.80;66.50;;;;;;5013075;28;20026;-73
2023/07/21 05:20:26;;;;;;;4.50;2.15;;;21.80;66.60;;;;;;5012236;28;20022;-73
2023/07/21 05:22:52;;;;;;;4.57;2.72;;;21.80;66.60;;;;;;5013001;28;20076;-73
2023/07/21 05:25:18;;;;;;;7.82;2.65;;;21.80;66.40;;;;;;5012812;28;20061;-73
2023/07/21 05:27:47;;;;;;;7.28;2.75;;;21.80;66.60;;;;;;5013578;28;20049;-73
2023/07/21 05:30:13;;;;;;;8.57;2.65;;;21.80;66.70;;;;;;5013569;28;20025;-73
2023/07/21 05:32:41;;;;;;;8.10;2.60;;;21.80;66.70;;;;;;5015792;28;20052;-73
2023/07/21 05:35:08;;;;;;;6.80;2.75;;;21.80;66.50;;;;;;5017317;28;20084;-73
2023/07/21 05:37:33;;;;;;;4.00;2.28;;;21.90;66.70;;;;;;5016451;28;20026;-73
2023/07/21 05:39:59;;;;;;;7.32;2.42;;;21.90;66.70;;;;;;5016806;28;20026;-73
2023/07/21 05:42:24;;;;;;;12.48;2.58;;;21.90;67.00;;;;;;5016705;28;20025;-73
2023/07/21 05:44:50;;;;;;;13.00;2.67;;;21.90;66.60;;;;;;5016518;28;20061;-73
2023/07/21 05:47:15;;;;;;;4.32;2.60;;;21.90;67.20;;;;;;5016356;28;20058;-72
2023/07/21 05:49:41;;;;;;;3.05;2.20;;;21.90;67.10;;;;;;5016752;28;20021;-72
2023/07/21 05:52:07;;;;;;;2.53;2.05;;;22.00;66.60;;;;;;5016548;28;20501;-72
2023/07/21 05:54:33;;;;;;;7.13;2.38;;;22.00;66.20;;;;;;5015874;28;20022;-71
2023/07/21 05:56:59;;;;;;;6.00;2.50;;;22.00;65.90;;;;;;5016476;28;20581;-72
2023/07/21 05:59:24;;;;;;;10.05;2.55;;;22.00;65.90;;;;;;5012859;28;20076;-72
2023/07/21 06:01:51;;;;;;;8.93;2.72;;;22.00;65.80;;;;;;5016094;28;20030;-73
2023/07/21 06:04:17;;;;;;;6.32;3.00;;;22.00;65.90;;;;;;5015828;28;20432;-73
2023/07/21 06:06:43;;;;;;;7.05;3.28;;;22.00;65.90;;;;;;5016169;28;20133;-73
2023/07/21 06:09:08;;;;;;;4.60;2.65;;;22.00;66.00;;;;;;5004079;28;20105;-73
2023/07/21 06:11:35;;;;;;;11.27;2.70;;;22.00;65.60;;;;;;4996294;28;20030;-73
2023/07/21 06:14:01;;;;;;;8.77;2.60;;;22.00;65.80;;;;;;4996598;28;20418;-73
2023/07/21 06:16:27;;;;;;;8.05;3.15;;;22.00;65.90;;;;;;4996174;28;20023;-73
2023/07/21 06:18:52;;;;;;;11.60;3.00;;;22.00;66.20;;;;;;4996751;28;20385;-73
2023/07/21 06:21:20;;;;;;;11.45;2.88;;;22.00;66.70;;;;;;4995981;28;20431;-72
2023/07/21 06:23:47;;;;;;;8.13;2.88;;;22.00;66.60;;;;;;4996319;28;20023;-73
2023/07/21 06:26:13;;;;;;;6.55;2.78;;;22.00;66.70;;;;;;4996409;28;20026;-73
2023/07/21 06:28:38;;;;;;;7.20;2.72;;;22.00;66.70;;;;;;4996006;28;20029;-72
2023/07/21 06:31:04;;;;;;;4.20;2.38;;;22.10;66.10;;;;;;4996024;28;20035;-72
2023/07/21 06:33:29;;;;;;;4.50;2.40;;;22.10;65.50;;;;;;4995815;28;20427;-72
2023/07/21 06:35:55;;;;;;;4.15;2.10;;;22.10;65.30;;;;;;4996428;28;20026;-72
2023/07/21 06:38:21;;;;;;;7.30;2.72;;;22.10;64.90;;;;;;4995760;28;20439;-72
2023/07/21 06:40:46;;;;;;;7.95;2.50;;;22.10;65.00;;;;;;4996117;28;20117;-74
2023/07/21 06:43:14;;;;;;;6.70;2.60;;;22.10;65.00;;;;;;4995984;28;20014;-73
2023/07/21 06:45:40;;;;;;;7.13;2.90;;;22.10;64.90;;;;;;4995574;28;20026;-73
2023/07/21 06:48:06;;;;;;;6.28;2.80;;;22.10;64.50;;;;;;4995810;28;20113;-73
2023/07/21 06:50:32;;;;;;;2.58;2.10;;;22.10;64.50;;;;;;4995323;28;20500;-74
2023/07/21 06:52:58;;;;;;;10.75;2.88;;;22.10;63.90;;;;;;5006512;28;20022;-74
2023/07/21 06:55:24;;;;;;;5.95;2.50;;;22.10;64.20;;;;;;5015086;28;20025;-73
2023/07/21 06:57:50;;;;;;;7.00;2.58;;;22.10;63.90;;;;;;5015161;28;20037;-74
2023/07/21 07:00:16;;;;;;;7.70;2.50;;;22.20;63.90;;;;;;5015608;28;20524;-73
2023/07/21 07:02:47;;;;;;;5.35;2.65;;;22.20;63.20;;;;;;5014542;28;20469;-73
2023/07/21 07:05:13;;;;;;;6.95;2.80;;;22.20;63.30;;;;;;5015307;28;20331;-73
2023/07/21 07:07:39;;;;;;;8.02;3.08;;;22.20;63.70;;;;;;5014923;28;20051;-73
2023/07/21 07:10:05;;;;;;;9.40;2.95;;;22.20;63.90;;;;;;5015088;28;20374;-73
2023/07/21 07:12:32;;;;;;;6.63;2.95;;;22.20;64.30;;;;;;5014898;28;20523;-73
2023/07/21 07:14:58;;;;;;;5.90;2.53;;;22.20;64.10;;;;;;5015022;28;20104;-73
2023/07/21 07:17:24;;;;;;;7.18;2.85;;;22.20;64.40;;;;;;5014564;28;20493;-72
2023/07/21 07:19:50;;;;;;;7.45;3.03;;;22.20;64.60;;;;;;5014841;28;20025;-73
2023/07/21 07:22:15;;;;;;;7.88;3.10;;;22.20;64.60;;;;;;5014611;28;20537;-73
2023/07/21 07:24:41;;;;;;;10.60;3.35;;;22.20;64.40;;;;;;5014316;28;20026;-73
2023/07/21 07:27:07;;;;;;;6.20;3.22;;;22.30;64.50;;;;;;5014526;28;20026;-73
2023/07/21 07:29:34;;;;;;;9.50;3.28;;;22.30;64.40;;;;;;5014135;28;20022;-72
2023/07/21 07:32:00;;;;;;;9.80;3.10;;;22.30;64.60;;;;;;5014659;28;20157;-73
2023/07/21 07:34:26;;;;;;;10.60;2.97;;;22.30;64.60;;;;;;5014021;28;20100;-73
2023/07/21 07:36:52;;;;;;;13.63;4.00;;;22.30;64.60;;;;;;5014560;28;20358;-73
2023/07/21 07:39:18;;;;;;;5.60;2.60;;;22.40;64.50;;;;;;4997067;28;20034;-73
2023/07/21 07:41:50;;;;;;;8.48;3.17;;;22.40;64.90;;;;;;5014119;28;20036;-73
2023/07/21 07:44:15;;;;;;;5.93;3.05;;;22.50;64.90;;;;;;5014429;28;20029;-73
2023/07/21 07:46:41;;;;;;;7.18;2.97;;;22.50;64.70;;;;;;5013949;28;20026;-73
2023/07/21 07:49:07;;;;;;;5.57;2.95;;;22.50;65.10;;;;;;4996722;28;20105;-73
2023/07/21 07:51:38;;;;;;;8.65;3.00;;;22.60;65.00;;;;;;5014152;28;20060;-73
2023/07/21 07:54:05;;;;;;;10.10;3.15;;;22.60;64.80;;;;;;5011203;28;20463;-73
2023/07/21 07:56:31;;;;;;;10.60;3.10;;;22.60;64.90;;;;;;5013399;28;20022;-73
2023/07/21 07:58:57;;;;;;;7.78;3.60;;;22.70;64.80;;;;;;5014512;28;20104;-73
2023/07/21 08:01:23;;;;;;;7.03;2.45;;;22.70;64.40;;;;;;4997620;28;20114;-73
2023/07/21 08:03:49;;;;;;;5.97;2.92;;;22.80;64.10;;;;;;4994560;28;20451;-73
2023/07/21 08:06:15;;;;;;;7.53;3.05;;;22.80;63.80;;;;;;4993877;28;20046;-73
2023/07/21 08:08:42;;;;;;;7.10;2.80;;;22.80;64.10;;;;;;4993303;28;20029;-73
2023/07/21 08:11:07;;;;;;;7.13;3.55;;;22.80;64.20;;;;;;4993536;28;20065;-73
2023/07/21 08:13:34;;;;;;;8.07;3.13;;;22.80;63.80;;;;;;4993017;28;20054;-73
2023/07/21 08:16:00;;;;;;;6.95;3.15;;;22.80;64.50;;;;;;4993557;28;20190;-72
2023/07/21 08:18:25;;;;;;;11.23;2.97;;;22.70;64.50;;;;;;4993161;28;20026;-73
2023/07/21 08:20:51;;;;;;;5.85;2.90;;;22.70;65.10;;;;;;4993680;28;20090;-73
2023/07/21 08:23:17;;;;;;;10.75;3.22;;;22.70;65.40;;;;;;4996432;28;20025;-74
2023/07/21 08:25:43;;;;;;;7.13;3.05;;;22.70;65.70;;;;;;4997796;28;20023;-73
2023/07/21 08:28:08;;;;;;;8.65;2.90;;;22.60;65.70;;;;;;4995880;28;20026;-73
2023/07/21 08:30:35;;;;;;;6.45;2.80;;;22.60;66.10;;;;;;4992809;28;20033;-73
2023/07/21 08:33:01;;;;;;;8.65;2.75;;;22.60;66.30;;;;;;4993273;28;20467;-73
2023/07/21 08:35:27;;;;;;;8.13;2.92;;;22.50;66.70;;;;;;4992771;28;20057;-73
2023/07/21 08:37:54;;;;;;;9.43;2.88;;;22.40;67.30;;;;;;4993047;28;20054;-73
2023/07/21 08:40:22;;;;;;;6.47;2.95;;;22.40;67.90;;;;;;4993015;28;20030;-73
2023/07/21 08:42:49;;;;;;;7.53;3.35;;;22.40;68.20;;;;;;4992654;28;20026;-73
2023/07/21 08:45:15;;;;;;;11.68;3.45;;;22.40;69.40;;;;;;4992977;28;20026;-73
2023/07/21 08:47:41;;;;;;;9.13;3.65;;;22.30;69.90;;;;;;4992878;28;20120;-73
2023/07/21 08:50:07;;;;;;;10.43;3.45;;;22.30;70.40;;;;;;4993208;28;20355;-73
2023/07/21 08:52:33;;;;;;;13.63;3.75;;;22.30;70.80;;;;;;4992227;28;20033;-73
2023/07/21 08:55:00;;;;;;;8.23;2.95;;;22.30;71.20;;;;;;5009535;28;20390;-73
2023/07/21 08:57:27;;;;;;;13.50;4.10;;;22.20;71.00;;;;;;5012453;28;20034;-72
2023/07/21 08:59:56;;;;;;;13.88;3.70;;;22.30;71.00;;;;;;5012490;28;20109;-73
2023/07/21 09:02:45;;;;;;;5.10;2.88;;;22.30;70.80;;;;;;5012373;28;20060;-73
2023/07/21 09:05:15;;;;;;;14.70;3.80;;;22.30;70.60;;;;;;5012396;28;20339;-73
2023/07/21 09:07:42;;;;;;;12.85;3.25;;;22.40;71.00;;;;;;4973720;28;1093684;-73
2023/07/21 09:10:09;;;;;;;5.85;3.03;;;22.40;71.30;;;;;;5013387;28;20417;-73
2023/07/21 09:12:36;;;;;;;6.40;3.13;;;22.40;71.40;;;;;;5012672;28;20057;-73
2023/07/21 09:15:09;;;;;;;5.93;3.30;;;22.50;71.80;;;;;;5013029;28;20026;-73
2023/07/21 09:17:39;;;;;;;7.97;3.22;;;22.50;70.70;;;;;;5012754;28;20033;-73
2023/07/21 09:20:07;;;;;;;7.18;3.25;;;22.50;70.60;;;;;;5013127;28;20100;-71
2023/07/21 09:22:33;;;;;;;8.75;3.38;;;22.50;71.10;;;;;;5012553;28;20030;-73
2023/07/21 09:24:58;;;;;;;9.35;3.20;;;22.60;70.90;;;;;;5012903;28;20454;-73
2023/07/21 09:27:24;;;;;;;8.27;2.90;;;22.70;70.80;;;;;;5012631;28;20026;-72
2023/07/21 09:30:00;;;;;;;7.78;3.17;;;22.70;70.10;;;;;;5012227;28;20095;-73
2023/07/21 09:32:26;;;;;;;7.03;3.53;;;22.90;70.10;;;;;;5012852;28;20466;-73
2023/07/21 09:34:57;;;;;;;6.00;3.05;;;23.10;70.00;;;;;;5012367;28;20029;-73
2023/07/21 09:37:31;;;;;;;8.07;3.67;;;23.30;70.60;;;;;;4995266;28;20374;-73
2023/07/21 09:40:00;;;;;;;7.05;3.33;;;23.60;69.50;;;;;;5012883;28;20091;-73
2023/07/21 09:42:28;;;;;;;7.38;3.30;;;23.80;68.10;;;;;;5012456;28;20486;-73
2023/07/21 09:44:56;;;;;;;7.18;3.90;;;24.00;67.80;;;;;;5012022;28;20022;-73
2023/07/21 09:47:22;;;;;;;8.60;5.20;;;24.10;67.90;;;;;;5009249;28;20033;-73
2023/07/21 09:49:49;;;;;;;9.63;4.22;;;24.20;67.90;;;;;;5012339;28;20142;-72
2023/07/21 09:52:19;;;;;;;6.28;3.55;;;24.30;67.10;;;;;;5012540;28;20409;-73
2023/07/21 09:54:48;;;;;;;7.57;3.70;;;24.50;67.30;;;;;;5012062;28;20451;-72
2023/07/21 09:57:22;;;;;;;7.47;3.72;;;24.50;67.10;;;;;;5012164;28;20030;-73
2023/07/21 09:59:56;;;;;;;7.35;3.78;;;24.50;66.90;;;;;;5012021;28;20026;-72
2023/07/21 10:02:22;;;;;;;8.63;4.00;;;24.50;66.50;;;;;;5012370;28;20048;-73
2023/07/21 10:04:48;;;;;;;5.07;4.00;;;24.50;66.80;;;;;;5011897;28;20021;-72
2023/07/21 10:07:15;;;;;;;14.90;3.45;;;24.50;67.60;;;;;;5012049;28;20049;-72
2023/07/21 10:09:44;;;;;;;6.50;3.45;;;24.50;67.70;;;;;;5012071;28;20040;-73
2023/07/21 10:12:14;;;;;;;9.32;3.63;;;24.60;68.10;;;;;;4990797;28;20081;-73
2023/07/21 10:14:41;;;;;;;4.60;3.45;;;24.70;68.00;;;;;;4992547;28;20026;-73
2023/07/21 10:17:08;;;;;;;6.95;3.72;;;24.70;67.70;;;;;;4992772;28;20348;-73
2023/07/21 10:19:44;;;;;;;8.20;3.80;;;24.80;67.00;;;;;;4995674;28;20161;-73
2023/07/21 10:22:12;;;;;;;10.75;3.20;;;24.90;66.90;;;;;;4996293;28;20038;-73
2023/07/21 10:24:45;;;;;;;7.30;3.20;;;25.00;66.40;;;;;;4995857;28;20076;-73
2023/07/21 10:27:20;;;;;;;7.55;3.20;;;25.00;66.50;;;;;;4996398;28;20034;-73
2023/07/21 10:29:46;;;;;;;7.88;3.55;;;25.20;66.80;;;;;;4996042;28;20030;-73
2023/07/21 10:32:12;;;;;;;5.32;3.08;;;25.20;65.40;;;;;;4996278;28;20449;-73
2023/07/21 10:34:42;;;;;;;5.30;3.22;;;25.20;65.40;;;;;;4995622;28;20022;-75
2023/07/21 10:37:08;;;;;;;4.38;2.95;;;25.30;65.50;;;;;;4996327;28;20521;-73
2023/07/21 10:39:41;;;;;;;5.75;2.83;;;25.30;66.00;;;;;;4996475;28;20113;-73
2023/07/21 10:42:08;;;;;;;6.85;2.83;;;25.30;66.00;;;;;;4996035;28;20041;-73
2023/07/21 10:44:48;;;;;;;4.30;3.00;;;25.30;66.50;;;;;;4995947;28;20104;-73
2023/07/21 10:47:16;;;;;;;10.60;3.30;;;25.30;66.20;;;;;;4990559;28;20025;-73
2023/07/21 10:49:42;;;;;;;5.88;3.25;;;25.30;66.90;;;;;;5014839;28;20524;-73
2023/07/21 10:52:09;;;;;;;3.80;2.78;;;25.30;67.00;;;;;;5015412;28;20022;-73
2023/07/21 10:54:38;;;;;;;4.15;2.97;;;25.30;67.00;;;;;;5015413;28;20096;-73
2023/07/21 10:57:04;;;;;;;8.73;3.35;;;25.30;67.30;;;;;;5015248;28;20018;-73
2023/07/21 10:59:34;;;;;;;6.82;2.92;;;25.30;67.60;;;;;;5015307;28;20030;-73
2023/07/21 11:02:02;;;;;;;6.32;2.72;;;25.30;67.00;;;;;;5014734;28;20037;-73
2023/07/21 11:04:29;;;;;;;2.90;2.58;;;25.30;66.70;;;;;;5015283;28;20025;-73
2023/07/21 11:06:57;;;;;;;6.47;2.33;;;25.30;66.40;;;;;;5014405;28;20046;-72
2023/07/21 11:09:23;;;;;;;4.88;2.25;;;25.30;65.90;;;;;;5015212;28;20075;-73
2023/07/21 11:11:51;;;;;;;6.15;2.67;;;25.30;66.20;;;;;;5014364;28;20450;-73
2023/07/21 11:14:23;;;;;;;5.03;2.80;;;25.30;66.40;;;;;;5014998;28;20514;-73
2023/07/21 11:16:49;;;;;;;3.22;2.83;;;25.30;66.50;;;;;;5014653;28;20117;-72
2023/07/21 11:19:19;;;;;;;11.55;2.50;;;25.30;66.80;;;;;;5015378;28;20072;-73
2023/07/21 11:21:46;;;;;;;4.00;2.53;;;25.40;67.30;;;;;;5014905;28;20347;-73
2023/07/21 11:24:16;;;;;;;3.17;2.00;;;25.40;68.00;;;;;;5015881;28;20080;-73
2023/07/21 11:26:42;;;;;;;5.38;2.72;;;25.50;68.20;;;;;;5015334;28;20021;-73
2023/07/21 11:29:08;;;;;;;6.70;2.70;;;25.50;67.90;;;;;;5014936;28;20030;-73
2023/07/21 11:31:35;;;;;;;2.63;2.08;;;25.50;68.10;;;;;;5014696;28;20061;-73
2023/07/21 11:34:01;;;;;;;3.38;2.15;;;25.50;67.40;;;;;;5014276;28;20025;-73
2023/07/21 11:36:30;;;;;;;2.60;2.05;;;25.50;66.30;;;;;;5014622;28;20030;-73
2023/07/21 11:39:04;;;;;;;3.55;1.80;;;25.50;65.70;;;;;;5014235;28;20026;-73
2023/07/21 11:41:39;;;;;;;3.88;2.20;;;25.60;65.40;;;;;;5014646;28;20107;-73
2023/07/21 11:44:16;;;;;;;3.25;1.92;;;25.80;65.30;;;;;;5014531;28;20037;-73
2023/07/21 11:46:41;;;;;;;3.85;2.33;;;25.80;65.00;;;;;;5014153;28;20068;-72
2023/07/21 11:49:10;;;;;;;2.42;2.17;;;25.90;64.60;;;;;;5011280;28;20038;-73
2023/07/21 11:51:46;;;;;;;3.15;1.88;;;25.90;64.10;;;;;;5014174;28;20480;-73
2023/07/21 11:54:37;;;;;;;3.03;1.65;;;25.90;64.50;;;;;;5014358;28;20510;-72
2023/07/21 11:57:02;;;;;;;3.33;1.98;;;25.90;65.00;;;;;;5013896;28;20419;-73
2023/07/21 11:59:28;;;;;;;4.63;1.90;;;26.00;65.00;;;;;;5014296;28;20053;-73
2023/07/21 12:01:55;;;;;;;3.05;1.98;;;26.00;63.90;;;;;;5013683;28;20034;-73
2023/07/21 12:04:22;;;;;;;3.65;1.88;;;26.10;63.70;;;;;;5014036;28;20037;-72
2023/07/21 12:06:48;;;;;;;3.35;2.05;;;26.10;63.00;;;;;;5013558;28;20462;-72
2023/07/21 12:09:14;;;;;;;4.35;2.08;;;26.00;62.40;;;;;;4998194;28;20104;-73
2023/07/21 12:11:40;;;;;;;2.85;1.85;;;26.00;61.90;;;;;;4994334;28;20030;-73
2023/07/21 12:14:05;;;;;;;3.95;1.85;;;26.10;61.90;;;;;;4993930;28;20466;-73
2023/07/21 12:16:35;;;;;;;4.55;2.17;;;26.10;61.80;;;;;;4994438;28;20022;-73
2023/07/21 12:19:03;;;;;;;2.53;2.00;;;26.20;62.10;;;;;;4993958;28;20065;-73
2023/07/21 12:21:30;;;;;;;3.67;1.90;;;26.20;61.90;;;;;;4994228;28;20379;-73
2023/07/21 12:23:55;;;;;;;2.63;1.85;;;26.30;60.90;;;;;;4993923;28;20451;-73
2023/07/21 12:26:22;;;;;;;2.28;1.92;;;26.30;60.00;;;;;;4994014;28;20033;-73
2023/07/21 12:28:48;;;;;;;2.75;1.55;;;26.40;60.20;;;;;;4993954;28;20027;-71
2023/07/21 12:31:15;;;;;;;3.88;1.77;;;26.40;59.30;;;;;;4994012;28;20085;-72
2023/07/21 12:33:41;;;;;;;4.43;1.90;;;26.40;59.10;;;;;;4993986;28;20338;-72
2023/07/21 12:36:07;;;;;;;3.67;1.77;;;26.40;58.50;;;;;;4976062;28;20450;-73
2023/07/21 12:38:33;;;;;;;4.20;1.88;;;26.40;58.40;;;;;;4993934;28;20027;-72
2023/07/21 12:40:59;;;;;;;3.30;1.90;;;26.40;58.20;;;;;;4993371;28;20341;-71
2023/07/21 12:43:25;;;;;;;2.75;2.08;;;26.40;57.60;;;;;;4993635;28;20113;-72
2023/07/21 12:45:50;;;;;;;2.20;1.70;;;26.40;57.70;;;;;;4993290;28;20038;-71